createdAt,value
2023-04-24T00:02:27.052Z,100913.77
2023-04-24T00:04:54.240Z,100909.83
2023-04-24T00:07:21.476Z,100912.94
2023-04-24T00:09:49.024Z,100908.14
2023-04-24T00:12:15.734Z,100911.91
2023-04-24T00:14:44.358Z,100911.84
2023-04-24T00:17:11.203Z,100910.95
2023-04-24T00:19:38.037Z,100910.04
2023-04-24T00:22:04.874Z,100909.13
2023-04-24T00:24:31.956Z,100908.60
2023-04-24T00:26:58.915Z,100909.23
2023-04-24T00:29:25.871Z,100915.30
2023-04-24T00:31:52.748Z,100911.52
2023-04-24T00:34:19.680Z,100915.77
2023-04-24T00:36:47.056Z,100915.02
2023-04-24T00:39:13.868Z,100916.13
2023-04-24T00:41:40.708Z,100921.38
2023-04-24T00:44:07.851Z,100917.77
2023-04-24T00:46:34.853Z,100920.27
2023-04-24T00:49:01.641Z,100920.69
2023-04-24T00:51:28.618Z,100923.38
2023-04-24T00:53:56.067Z,100924.70
2023-04-24T00:56:23.900Z,100918.30
2023-04-24T00:58:51.162Z,100917.65
2023-04-24T01:01:24.025Z,100916.11
2023-04-24T01:03:51.765Z,100918.79
2023-04-24T01:06:19.393Z,100918.05
2023-04-24T01:08:46.266Z,100911.84
2023-04-24T01:11:13.140Z,100912.61
2023-04-24T01:13:40.130Z,100912.81
2023-04-24T01:16:06.949Z,100912.59
2023-04-24T01:18:35.321Z,100912.29
2023-04-24T01:21:03.983Z,100914.23
2023-04-24T01:23:32.455Z,100914.63
2023-04-24T01:25:59.213Z,100914.92
2023-04-24T01:28:26.734Z,100913.77
2023-04-24T01:30:53.971Z,100911.06
2023-04-24T01:33:24.076Z,100907.49
2023-04-24T01:35:50.950Z,100900.63
2023-04-24T01:38:19.057Z,100900.97
2023-04-24T01:40:45.932Z,100897.36
2023-04-24T01:43:13.198Z,100898.52
2023-04-24T01:45:40.254Z,100895.55
2023-04-24T01:48:07.169Z,100896.59
2023-04-24T01:50:34.345Z,100890.55
2023-04-24T01:53:01.186Z,100891.77
2023-04-24T01:55:28.078Z,100892.29
2023-04-24T01:57:56.023Z,100891.66
2023-04-24T02:00:23.143Z,100893.41
2023-04-24T02:02:50.572Z,100890.11
2023-04-24T02:05:17.547Z,100890.73
2023-04-24T02:07:44.378Z,100888.73
2023-04-24T02:10:11.295Z,100890.34
2023-04-24T02:12:43.303Z,100889.09
2023-04-24T02:15:10.716Z,100888.94
2023-04-24T02:17:38.352Z,100891.90
2023-04-24T02:20:07.021Z,100893.36
2023-04-24T02:22:34.556Z,100892.80
2023-04-24T02:25:02.247Z,100893.21
2023-04-24T02:27:29.199Z,100886.73
2023-04-24T02:29:56.022Z,100894.35
2023-04-24T02:32:22.785Z,100892.05
2023-04-24T02:34:49.833Z,100886.95
2023-04-24T02:37:16.645Z,100891.98
2023-04-24T02:39:44.936Z,100894.05
2023-04-24T02:42:11.906Z,100890.15
2023-04-24T02:44:38.770Z,100895.33
2023-04-24T02:47:05.534Z,100898.17
2023-04-24T02:49:33.823Z,100895.83
2023-04-24T02:52:00.653Z,100899.23
2023-04-24T02:54:27.479Z,100899.43
2023-04-24T02:56:54.376Z,100905.48
2023-04-24T02:59:21.268Z,100905.13
2023-04-24T03:01:48.153Z,100906.15
2023-04-24T03:04:16.419Z,100907.30
2023-04-24T03:06:43.905Z,100903.12
2023-04-24T03:09:10.947Z,100903.67
2023-04-24T03:11:37.859Z,100904.72
2023-04-24T03:14:04.632Z,100905.92
2023-04-24T03:16:31.679Z,100906.80
2023-04-24T03:18:58.586Z,100909.30
2023-04-24T03:21:27.201Z,100909.80
2023-04-24T03:23:54.006Z,100913.55
2023-04-24T03:26:21.056Z,100914.05
2023-04-24T03:29:01.389Z,100910.94
2023-04-24T03:31:29.039Z,100916.77
2023-04-24T03:33:56.117Z,100918.60
2023-04-24T03:36:23.335Z,100919.91
2023-04-24T03:38:50.248Z,100922.29
2023-04-24T03:41:24.228Z,100920.96
2023-04-24T03:43:55.860Z,100923.79
2023-04-24T03:46:22.909Z,100922.09
2023-04-24T03:48:55.475Z,100922.67
2023-04-24T03:51:55.721Z,100922.48
2023-04-24T03:54:49.830Z,100917.67
2023-04-24T03:57:16.755Z,100923.59
2023-04-24T03:59:52.006Z,100921.96
2023-04-24T04:02:18.994Z,100930.63
2023-04-24T04:04:46.652Z,100928.95
2023-04-24T04:07:13.883Z,100927.98
2023-04-24T04:09:40.966Z,100929.20
2023-04-24T04:12:08.228Z,100929.85
2023-04-24T04:14:39.119Z,100933.81
2023-04-24T04:17:05.989Z,100932.34
2023-04-24T04:19:33.343Z,100933.89
2023-04-24T04:22:00.385Z,100933.32
2023-04-24T04:24:38.400Z,100937.41
2023-04-24T04:27:05.976Z,100935.38
2023-04-24T04:29:42.680Z,100937.27
2023-04-24T04:32:10.895Z,100933.59
2023-04-24T04:34:40.202Z,100937.59
2023-04-24T04:37:07.189Z,100937.14
2023-04-24T04:39:51.425Z,100935.98
2023-04-24T04:42:21.522Z,100935.72
2023-04-24T04:44:48.773Z,100934.04
2023-04-24T04:47:23.422Z,100934.14
2023-04-24T04:49:52.501Z,100934.89
2023-04-24T04:52:25.649Z,100931.99
2023-04-24T04:54:56.095Z,100933.77
2023-04-24T04:57:26.051Z,100930.65
2023-04-24T04:59:53.242Z,100930.34
2023-04-24T05:02:30.078Z,100928.69
2023-04-24T05:04:57.505Z,100921.21
2023-04-24T05:07:25.149Z,100920.92
2023-04-24T05:09:52.845Z,100920.13
2023-04-24T05:12:19.825Z,100916.28
2023-04-24T05:14:50.960Z,100923.88
2023-04-24T05:17:17.947Z,100920.23
2023-04-24T05:19:45.605Z,100922.64
2023-04-24T05:22:14.027Z,100920.30
2023-04-24T05:24:48.121Z,100920.50
2023-04-24T05:27:53.999Z,100917.60
2023-04-24T05:30:21.244Z,100912.20
2023-04-24T05:32:48.238Z,100912.95
2023-04-24T05:35:15.364Z,100907.23
2023-04-24T05:37:42.670Z,100907.95
2023-04-24T05:40:10.114Z,100904.27
2023-04-24T05:42:37.020Z,100908.45
2023-04-24T05:45:05.003Z,100908.02
2023-04-24T05:47:32.114Z,100906.93
2023-04-24T05:50:00.211Z,100905.63
2023-04-24T05:52:27.249Z,100908.64
2023-04-24T05:54:54.163Z,100907.39
2023-04-24T05:57:23.383Z,100909.52
2023-04-24T06:00:02.648Z,100908.53
2023-04-24T06:02:33.066Z,100908.55
2023-04-24T06:05:00.804Z,100912.69
2023-04-24T06:07:28.169Z,100906.92
2023-04-24T06:09:55.143Z,100910.80
2023-04-24T06:12:22.997Z,100911.65
2023-04-24T06:14:58.850Z,100910.83
2023-04-24T06:17:46.010Z,100909.31
2023-04-24T06:20:13.278Z,100911.88
2023-04-24T06:22:41.092Z,100908.42
2023-04-24T06:25:08.562Z,100908.94
2023-04-24T06:27:35.879Z,100909.94
2023-04-24T06:30:03.508Z,100907.23
2023-04-24T06:32:31.609Z,100905.55
2023-04-24T06:35:00.420Z,100904.38
2023-04-24T06:37:29.474Z,100905.94
2023-04-24T06:39:56.553Z,100900.77
2023-04-24T06:42:25.070Z,100901.83
2023-04-24T06:44:52.255Z,100901.56
2023-04-24T06:47:19.657Z,100900.45
2023-04-24T06:49:46.765Z,100907.20
2023-04-24T06:52:13.666Z,100907.58
2023-04-24T06:54:42.022Z,100907.95
2023-04-24T06:57:09.229Z,100906.23
2023-04-24T06:59:36.208Z,100906.42
2023-04-24T07:02:03.571Z,100903.77
2023-04-24T07:04:32.259Z,100898.42
2023-04-24T07:06:59.296Z,100896.16
2023-04-24T07:09:26.441Z,100897.00
2023-04-24T07:11:53.950Z,100896.05
2023-04-24T07:14:21.067Z,100894.38
2023-04-24T07:16:48.042Z,100890.27
2023-04-24T07:19:14.928Z,100888.11
2023-04-24T07:21:42.571Z,100885.78
2023-04-24T07:24:11.257Z,100886.66
2023-04-24T07:26:40.892Z,100885.02
2023-04-24T07:29:08.186Z,100878.95
2023-04-24T07:31:35.173Z,100880.05
2023-04-24T07:34:02.346Z,100876.14
2023-04-24T07:36:29.479Z,100873.98
2023-04-24T07:38:57.573Z,100874.39
2023-04-24T07:41:25.255Z,100866.38
2023-04-24T07:43:54.212Z,100863.79
2023-04-24T07:46:21.344Z,100861.05
2023-04-24T07:48:48.889Z,100858.27
2023-04-24T07:51:18.753Z,100861.81
2023-04-24T07:53:47.851Z,100855.32
2023-04-24T07:56:14.849Z,100854.42
2023-04-24T07:58:42.346Z,100853.21
2023-04-24T08:01:09.272Z,100848.13
2023-04-24T08:03:36.260Z,100843.40
2023-04-24T08:06:07.154Z,100840.04
2023-04-24T08:08:34.419Z,100837.27
2023-04-24T08:11:01.979Z,100841.16
2023-04-24T08:15:02.473Z,100837.09
2023-04-24T08:17:33.093Z,100836.86
2023-04-24T08:20:02.751Z,100832.98
2023-04-24T08:22:30.469Z,100830.23
2023-04-24T08:24:58.510Z,100828.20
2023-04-24T08:27:25.822Z,100823.25
2023-04-24T08:29:54.799Z,100821.41
2023-04-24T08:32:21.928Z,100815.14
2023-04-24T08:34:49.806Z,100813.63
2023-04-24T08:37:17.263Z,100811.00
2023-04-24T08:39:44.400Z,100809.04
2023-04-24T08:42:11.808Z,100808.96
2023-04-24T08:44:38.811Z,100808.23
2023-04-24T08:47:06.432Z,100807.31
2023-04-24T08:49:33.524Z,100802.05
2023-04-24T08:52:01.448Z,100806.94
2023-04-24T08:54:28.709Z,100805.70
2023-04-24T08:57:04.902Z,100805.11
2023-04-24T08:59:32.500Z,100802.69
2023-04-24T09:01:59.612Z,100799.38
2023-04-24T09:04:26.943Z,100796.68
2023-04-24T09:06:58.651Z,100798.45
2023-04-24T09:09:26.098Z,100798.61
2023-04-24T09:11:55.736Z,100796.33
2023-04-24T09:14:24.409Z,100797.04
2023-04-24T09:16:51.843Z,100797.83
2023-04-24T09:19:18.994Z,100795.71
2023-04-24T09:21:49.508Z,100793.47
2023-04-24T09:24:19.359Z,100789.33
2023-04-24T09:26:46.515Z,100785.25
2023-04-24T09:29:17.810Z,100787.79
2023-04-24T09:31:46.055Z,100790.84
2023-04-24T09:34:13.404Z,100780.05
2023-04-24T09:36:44.683Z,100781.00
2023-04-24T09:39:13.791Z,100785.13
2023-04-24T09:41:54.299Z,100787.84
2023-04-24T09:44:23.234Z,100789.96
2023-04-24T09:46:59.556Z,100783.83
2023-04-24T09:49:30.108Z,100786.82
2023-04-24T09:52:08.577Z,100778.30
2023-04-24T09:54:39.263Z,100780.23
2023-04-24T09:57:08.479Z,100778.09
2023-04-24T09:59:37.368Z,100779.79
2023-04-24T10:02:04.849Z,100776.30
2023-04-24T10:04:32.166Z,100769.93
2023-04-24T10:07:01.161Z,100767.91
2023-04-24T10:09:29.016Z,100765.78
2023-04-24T10:11:56.381Z,100764.55
2023-04-24T10:14:24.686Z,100761.92
2023-04-24T10:16:54.326Z,100761.08
2023-04-24T10:19:21.621Z,100754.14
2023-04-24T10:21:48.948Z,100755.95
2023-04-24T10:24:18.081Z,100755.38
2023-04-24T10:26:46.695Z,100751.27
2023-04-24T10:29:14.435Z,100748.48
2023-04-24T10:31:41.803Z,100748.67
2023-04-24T10:34:10.256Z,100746.22
2023-04-24T10:36:41.541Z,100748.05
2023-04-24T10:39:11.989Z,100746.90
2023-04-24T10:41:39.397Z,100743.88
2023-04-24T10:44:11.149Z,100741.30
2023-04-24T10:46:38.708Z,100743.23
2023-04-24T10:49:10.201Z,100739.39
2023-04-24T10:51:48.917Z,100735.70
2023-04-24T10:54:47.967Z,100732.28
2023-04-24T10:57:24.171Z,100727.56
2023-04-24T11:00:13.607Z,100731.99
2023-04-24T11:02:41.644Z,100727.95
2023-04-24T11:05:09.349Z,100714.38
2023-04-24T11:08:15.710Z,100712.74
2023-04-24T11:10:47.509Z,100712.94
2023-04-24T11:13:18.848Z,100716.13
2023-04-24T11:15:46.015Z,100723.40
2023-04-24T11:18:17.085Z,100721.19
2023-04-24T11:20:45.690Z,100718.63
2023-04-24T11:23:13.624Z,100717.12
2023-04-24T11:25:40.737Z,100715.48
2023-04-24T11:28:08.345Z,100718.48
2023-04-24T11:30:36.739Z,100710.83
2023-04-24T11:33:05.255Z,100715.05
2023-04-24T11:35:38.533Z,100713.65
2023-04-24T11:40:36.854Z,100708.91
2023-04-24T11:43:07.492Z,100707.54
2023-04-24T11:45:35.323Z,100703.94
2023-04-24T11:48:04.470Z,100698.68
2023-04-24T11:50:31.746Z,100692.89
2023-04-24T11:52:59.178Z,100692.34
2023-04-24T11:55:28.148Z,100692.08
2023-04-24T11:57:57.801Z,100694.02
2023-04-24T12:00:29.188Z,100695.26
2023-04-24T12:03:07.091Z,100690.70
2023-04-24T12:05:35.900Z,100687.86
2023-04-24T12:08:03.324Z,100679.63
2023-04-24T12:10:31.176Z,100682.57
2023-04-24T12:12:58.838Z,100683.33
2023-04-24T12:15:26.259Z,100676.41
2023-04-24T12:17:54.665Z,100671.95
2023-04-24T12:20:32.231Z,100675.07
2023-04-24T12:23:01.195Z,100674.06
2023-04-24T12:25:32.990Z,100668.39
2023-04-24T12:28:06.285Z,100665.67
2023-04-24T12:30:34.894Z,100661.83
2023-04-24T12:33:03.163Z,100661.93
2023-04-24T12:35:32.987Z,100656.36
2023-04-24T12:38:11.071Z,100655.27
2023-04-24T12:40:38.260Z,100652.02
2023-04-24T12:43:25.690Z,100649.89
2023-04-24T12:45:52.918Z,100647.13
2023-04-24T12:48:21.580Z,100644.26
2023-04-24T12:50:48.645Z,100647.93
2023-04-24T12:53:16.528Z,100649.20
2023-04-24T12:55:43.665Z,100646.02
2023-04-24T12:58:10.597Z,100647.71
2023-04-24T13:00:37.957Z,100644.16
2023-04-24T13:03:05.456Z,100644.74
2023-04-24T13:05:32.621Z,100640.33
2023-04-24T13:07:59.679Z,100638.63
2023-04-24T13:10:26.680Z,100638.83
2023-04-24T13:12:53.698Z,100638.54
2023-04-24T13:15:21.299Z,100633.73
2023-04-24T13:17:48.488Z,100634.70
2023-04-24T13:20:15.539Z,100627.45
2023-04-24T13:22:42.471Z,100630.16
2023-04-24T13:25:10.242Z,100624.21
2023-04-24T13:27:39.907Z,100624.98
2023-04-24T13:30:07.766Z,100622.14
2023-04-24T13:32:36.672Z,100622.15
2023-04-24T13:35:04.444Z,100617.81
2023-04-24T13:37:31.521Z,100615.08
2023-04-24T13:39:58.517Z,100612.90
2023-04-24T13:42:25.729Z,100615.91
2023-04-24T13:44:53.088Z,100616.56
2023-04-24T13:47:21.117Z,100614.59
2023-04-24T13:49:48.014Z,100617.20
2023-04-24T13:52:15.149Z,100615.58
2023-04-24T13:54:42.250Z,100614.44
2023-04-24T13:57:09.272Z,100616.04
2023-04-24T13:59:36.348Z,100613.90
2023-04-24T14:02:03.354Z,100614.30
2023-04-24T14:04:30.574Z,100611.40
2023-04-24T14:06:57.871Z,100606.73
2023-04-24T14:09:27.947Z,100608.91
2023-04-24T14:11:54.905Z,100610.86
2023-04-24T14:14:21.916Z,100610.95
2023-04-24T14:16:48.994Z,100609.89
2023-04-24T14:19:15.943Z,100610.51
2023-04-24T14:21:42.971Z,100609.73
2023-04-24T14:24:10.365Z,100610.48
2023-04-24T14:26:37.303Z,100610.16
2023-04-24T14:29:14.059Z,100611.05
2023-04-24T14:31:42.741Z,100611.11
2023-04-24T14:34:11.468Z,100609.89
2023-04-24T14:36:41.608Z,100612.10
2023-04-24T14:39:08.780Z,100612.86
2023-04-24T14:41:37.112Z,100611.53
2023-04-24T14:44:04.861Z,100615.90
2023-04-24T14:46:32.134Z,100621.80
2023-04-24T14:48:59.765Z,100619.30
2023-04-24T14:51:26.917Z,100622.13
2023-04-24T14:53:55.133Z,100619.45
2023-04-24T14:56:22.245Z,100614.04
2023-04-24T14:58:49.199Z,100612.77
2023-04-24T15:01:17.713Z,100615.00
2023-04-24T15:03:46.148Z,100609.06
2023-04-24T15:06:13.648Z,100607.19
2023-04-24T15:08:40.727Z,100599.16
2023-04-24T15:11:07.686Z,100595.46
2023-04-24T15:13:34.716Z,100594.14
2023-04-24T15:16:01.797Z,100591.00
2023-04-24T15:18:30.568Z,100587.77
2023-04-24T15:20:57.650Z,100587.39
2023-04-24T15:23:24.770Z,100587.97
2023-04-24T15:25:51.821Z,100585.45
2023-04-24T15:28:19.069Z,100583.80
2023-04-24T15:30:46.386Z,100581.66
2023-04-24T15:33:13.496Z,100583.11
2023-04-24T15:35:41.970Z,100580.14
2023-04-24T15:38:09.584Z,100575.95
2023-04-24T15:40:38.016Z,100575.00
2023-04-24T15:43:04.916Z,100570.58
2023-04-24T15:45:32.055Z,100571.14
2023-04-24T15:47:58.993Z,100567.36
2023-04-24T15:50:28.129Z,100569.96
2023-04-24T15:52:56.655Z,100572.52
2023-04-24T15:55:23.788Z,100573.45
2023-04-24T15:57:50.899Z,100573.98
2023-04-24T16:00:18.488Z,100577.11
2023-04-24T16:02:46.243Z,100577.94
2023-04-24T16:05:15.914Z,100578.86
2023-04-24T16:07:43.041Z,100576.15
2023-04-24T16:10:10.876Z,100577.06
2023-04-24T16:12:38.146Z,100576.26
2023-04-24T16:15:05.862Z,100581.06
2023-04-24T16:17:32.978Z,100584.96
2023-04-24T16:20:04.209Z,100583.73
2023-04-24T16:22:31.579Z,100583.91
2023-04-24T16:24:59.097Z,100578.08
2023-04-24T16:27:31.627Z,100579.45
2023-04-24T16:29:59.161Z,100576.91
2023-04-24T16:32:26.368Z,100577.38
2023-04-24T16:34:53.425Z,100579.14
2023-04-24T16:37:20.904Z,100579.61
2023-04-24T16:39:48.006Z,100581.20
2023-04-24T16:42:15.924Z,100581.56
2023-04-24T16:44:43.271Z,100580.09
2023-04-24T16:47:14.010Z,100579.26
2023-04-24T16:49:41.903Z,100581.85
2023-04-24T16:52:09.344Z,100578.61
2023-04-24T16:54:36.498Z,100578.17
2023-04-24T16:57:04.083Z,100578.81
2023-04-24T16:59:34.379Z,100574.67
2023-04-24T17:02:01.818Z,100579.35
2023-04-24T17:04:29.550Z,100580.80
2023-04-24T17:06:57.140Z,100582.39
2023-04-24T17:09:24.216Z,100583.00
2023-04-24T17:11:51.236Z,100582.41
2023-04-24T17:14:18.391Z,100587.15
2023-04-24T17:16:46.304Z,100588.33
2023-04-24T17:19:13.508Z,100589.04
2023-04-24T17:21:40.799Z,100591.89
2023-04-24T17:24:07.894Z,100590.80
2023-04-24T17:26:35.025Z,100591.98
2023-04-24T17:29:03.478Z,100591.31
2023-04-24T17:31:30.482Z,100589.02
2023-04-24T17:33:57.841Z,100592.32
2023-04-24T17:36:24.987Z,100593.50
2023-04-24T17:38:52.236Z,100596.27
2023-04-24T17:41:19.681Z,100597.70
2023-04-24T17:43:49.515Z,100593.48
2023-04-24T17:46:17.044Z,100598.33
2023-04-24T17:48:44.456Z,100602.44
2023-04-24T17:51:11.615Z,100605.63
2023-04-24T17:53:39.650Z,100609.88
2023-04-24T17:56:07.529Z,100605.35
2023-04-24T17:58:35.906Z,100602.24
2023-04-24T18:01:03.462Z,100599.73
2023-04-24T18:03:31.066Z,100600.21
2023-04-24T18:05:58.439Z,100597.94
2023-04-24T18:08:25.853Z,100593.59
2023-04-24T18:10:52.949Z,100593.88
2023-04-24T18:13:20.505Z,100595.81
2023-04-24T18:15:47.702Z,100597.73
2023-04-24T18:18:15.699Z,100597.34
2023-04-24T18:20:42.961Z,100597.06
2023-04-24T18:23:10.511Z,100595.77
2023-04-24T18:25:37.903Z,100598.17
2023-04-24T18:28:08.000Z,100600.93
2023-04-24T18:30:35.190Z,100597.52
2023-04-24T18:33:02.523Z,100596.70
2023-04-24T18:35:29.863Z,100596.31
2023-04-24T18:37:56.887Z,100596.83
2023-04-24T18:40:23.868Z,100599.51
2023-04-24T18:42:51.195Z,100600.45
2023-04-24T18:45:18.333Z,100601.88
2023-04-24T18:47:45.589Z,100595.27
2023-04-24T18:50:13.972Z,100599.39
2023-04-24T18:52:41.160Z,100603.11
2023-04-24T18:55:09.948Z,100599.56
2023-04-24T18:57:37.280Z,100599.23
2023-04-24T19:00:04.992Z,100603.27
2023-04-24T19:02:33.749Z,100597.41
2023-04-24T19:05:00.944Z,100596.79
2023-04-24T19:07:29.646Z,100594.86
2023-04-24T19:09:56.685Z,100592.08
2023-04-24T19:12:23.904Z,100590.11
2023-04-24T19:14:58.127Z,100587.73
2023-04-24T19:17:25.580Z,100582.65
2023-04-24T19:19:53.094Z,100584.64
2023-04-24T19:22:20.937Z,100584.81
2023-04-24T19:24:48.130Z,100582.40
2023-04-24T19:27:17.839Z,100578.13
2023-04-24T19:29:44.988Z,100576.13
2023-04-24T19:32:12.129Z,100572.67
2023-04-24T19:34:40.582Z,100571.48
2023-04-24T19:37:08.539Z,100572.94
2023-04-24T19:39:35.858Z,100569.63
2023-04-24T19:42:07.277Z,100563.55
2023-04-24T19:44:34.766Z,100570.37
2023-04-24T19:47:02.038Z,100569.79
2023-04-24T19:49:31.316Z,100571.54
2023-04-24T19:51:58.471Z,100572.52
2023-04-24T19:54:26.163Z,100565.44
2023-04-24T19:56:53.304Z,100569.66
2023-04-24T19:59:20.616Z,100572.42
2023-04-24T20:01:48.490Z,100569.45
2023-04-24T20:04:15.921Z,100574.44
2023-04-24T20:06:43.483Z,100584.04
2023-04-24T20:09:10.608Z,100580.14
2023-04-24T20:11:37.679Z,100580.23
2023-04-24T20:14:04.881Z,100579.89
2023-04-24T20:16:32.105Z,100578.86
2023-04-24T20:19:02.637Z,100576.65
2023-04-24T20:21:29.551Z,100575.11
2023-04-24T20:23:56.976Z,100577.21
2023-04-24T20:26:24.006Z,100577.73
2023-04-24T20:32:04.855Z,100572.39
2023-04-24T20:34:32.486Z,100566.46
2023-04-24T20:36:59.482Z,100566.58
2023-04-24T20:39:26.987Z,100564.40
2023-04-24T20:41:54.538Z,100563.98
2023-04-24T20:44:22.112Z,100562.30
2023-04-24T20:46:49.193Z,100556.63
2023-04-24T20:49:16.160Z,100559.47
2023-04-24T20:51:43.311Z,100560.18
2023-04-24T20:54:10.163Z,100558.64
2023-04-24T20:56:40.459Z,100557.02
2023-04-24T20:59:07.820Z,100557.45
2023-04-24T21:01:34.795Z,100557.14
2023-04-24T21:04:01.790Z,100556.98
2023-04-24T21:06:29.066Z,100554.36
2023-04-24T21:08:55.798Z,100554.25
2023-04-24T21:11:22.757Z,100548.34
2023-04-24T21:13:50.216Z,100549.04
2023-04-24T21:16:17.842Z,100550.32
2023-04-24T21:18:44.846Z,100547.42
2023-04-24T21:21:12.091Z,100544.30
2023-04-24T21:23:39.020Z,100542.43
2023-04-24T21:26:06.291Z,100540.76
2023-04-24T21:28:33.518Z,100541.17
2023-04-24T21:31:00.661Z,100545.40
2023-04-24T21:33:28.060Z,100540.80
2023-04-24T21:35:56.124Z,100535.09
2023-04-24T21:38:24.615Z,100530.81
2023-04-24T21:40:52.371Z,100530.55
2023-04-24T21:43:27.755Z,100526.11
2023-04-24T21:46:00.939Z,100530.64
2023-04-24T21:48:27.901Z,100524.52
2023-04-24T21:50:54.801Z,100524.54
2023-04-24T21:53:21.690Z,100521.56
2023-04-24T21:55:48.585Z,100524.10
2023-04-24T21:58:15.628Z,100524.39
2023-04-24T22:00:44.145Z,100522.22
2023-04-24T22:03:12.131Z,100512.12
2023-04-24T22:05:39.209Z,100517.09
2023-04-24T22:08:06.861Z,100516.00
2023-04-24T22:10:34.196Z,100510.09
2023-04-24T22:13:00.947Z,100506.60
2023-04-24T22:15:27.917Z,100503.91
2023-04-24T22:17:57.017Z,100501.22
2023-04-24T22:20:25.415Z,100502.10
2023-04-24T22:22:52.660Z,100498.52
2023-04-24T22:25:19.416Z,100500.17
2023-04-24T22:27:46.603Z,100498.14
2023-04-24T22:30:13.502Z,100501.87
2023-04-24T22:32:41.637Z,100500.45
2023-04-24T22:35:08.857Z,100496.45
2023-04-24T22:37:36.765Z,100494.66
2023-04-24T22:40:05.772Z,100489.40
2023-04-24T22:42:32.616Z,100495.34
2023-04-24T22:45:00.275Z,100498.24
2023-04-24T22:47:27.614Z,100494.13
2023-04-24T22:49:54.665Z,100483.91
2023-04-24T22:52:21.543Z,100480.61
2023-04-24T22:54:48.385Z,100483.02
2023-04-24T22:57:15.529Z,100479.40
2023-04-24T22:59:43.209Z,100475.21
2023-04-24T23:02:10.382Z,100473.23
2023-04-24T23:04:37.336Z,100467.55
2023-04-24T23:07:04.305Z,100468.86
2023-04-24T23:09:31.162Z,100468.06
2023-04-24T23:11:58.055Z,100467.98
2023-04-24T23:14:25.051Z,100469.92
2023-04-24T23:16:51.946Z,100467.73
2023-04-24T23:19:18.849Z,100461.48
2023-04-24T23:21:45.754Z,100458.52
2023-04-24T23:24:13.728Z,100458.14
2023-04-24T23:26:40.584Z,100453.91
2023-04-24T23:29:07.447Z,100457.55
2023-04-24T23:31:34.372Z,100455.44
2023-04-24T23:34:01.510Z,100455.61
2023-04-24T23:36:28.492Z,100451.65
2023-04-24T23:38:55.486Z,100450.44
2023-04-24T23:41:22.377Z,100451.75
2023-04-24T23:43:49.958Z,100452.00
2023-04-24T23:46:17.682Z,100451.06
2023-04-24T23:48:44.576Z,100449.44
2023-04-24T23:51:11.669Z,100448.94
2023-04-24T23:53:38.478Z,100449.02
2023-04-24T23:56:05.564Z,100447.73
2023-04-24T23:58:32.496Z,100448.44
